x

Nickerson Bank (44251) Wave Buoy

12:00pm - Sat 28th Feb 2015 All times are UTC.

  • Sig Wave height 10.2ft
  • Peak Period 12s
  • Wind
    20mph, 27mph gusts
  • Sea Temp 37°f
  • Air Temp 22°f
  • Sea Pressure 1027.3mb

More Historic Weather Station data

Upgrade to MSW Pro to gain access to the past 30 days of data for over 8000 Wavebouys and Weather Stations around the globe.

Join Pro

Comparision Forecast

View Surf forecast
   
Sat 02/28 12:00pm 10ft 12s 20 27 mph 1027.3mb 37f 22f
11:00am 10.5ft 12s 18 25 mph 1026.3mb 37f 20f
10:00am 10.5ft 12s 20 25 mph 1025.5mb 37f 20f
9:00am 12ft 12s 22 29 mph 1024.7mb 37f 22f
8:00am 11ft 12s 22 31 mph 1024.1mb 37f 22f
7:00am 11.5ft 13s 25 31 mph 1023.6mb 37f 23f
6:00am 11.5ft 12s 27 34 mph 1023.4mb 37f 23f
5:00am 11.5ft 13s 29 36 mph 1022.9mb 36f 23f
4:00am 12ft 13s 29 38 mph 1022mb 36f 24f
3:00am 11.5ft 12s 29 34 mph 1021.2mb 37f 25f
2:00am 12ft 13s 29 36 mph 1020.6mb 37f 25f
1:00am 11ft 14s 27 34 mph 1019.9mb 37f 26f
12:00am 11ft 11s 29 34 mph 1019.2mb 36f 26f
Fri 02/27 11:00pm 11ft 12s 29 36 mph 1018.7mb 36f 27f
10:00pm 11ft 11s 25 31 mph 1017.8mb 36f 27f
8:00pm 8.5ft 11s 25 31 mph 1015.4mb 36f 28f
7:00pm 8ft 11s 22 27 mph 1014.8mb 36f 28f
6:00pm 7ft 10s 20 25 mph 1013.5mb 36f 28f
5:00pm 7ft 12s 20 25 mph 1012.7mb 36f 28f
4:00pm 6ft 10s 13 18 mph 1012.5mb 36f 28f
3:00pm 7ft 11s 16 18 mph 1012.3mb 36f 29f
2:00pm 7.5ft 11s 9 11 mph 1011.1mb 36f 28f
1:00pm 8ft 11s 11 13 mph 1010.5mb 37f 28f
12:00pm 8ft 10s 11 13 mph 1009.8mb 37f 27f
11:00am 7ft 10s 13 18 mph 1009.3mb 37f 27f
10:00am 7.5ft 9s 9 13 mph 1009mb 37f 28f
9:00am 7ft 10s 11 13 mph 1008.1mb 36f 27f
8:00am 8ft 9s 9 13 mph 1008.2mb 36f 27f
7:00am 8ft 9s 9 11 mph 1008.7mb 37f 27f
6:00am 8ft 10s 9 11 mph 1008.7mb 36f 26f
5:00am 8ft 10s 4 9 mph 1010.9mb 36f 26f
4:00am 8.5ft 9s 7
mph
1012.9mb 36f 27f
3:00am 8ft 10s 9 13 mph 1013.9mb 36f 27f
2:00am 8ft 10s 11 13 mph 1014.5mb 36f 29f
1:00am 10ft 10s 18 22 mph 1015.9mb 36f 29f
12:00am 10.5ft 10s 18 22 mph 1015.4mb 37f 29f
Thu 02/26 11:00pm 11ft 10s 18 22 mph 1015.5mb 37f 29f
10:00pm 11.5ft 9s 22 27 mph 1015.1mb 37f 29f
9:00pm 13ft 10s 25 31 mph 1014.7mb 37f 29f
8:00pm 13ft 10s 27 36 mph 1014.3mb 36f 29f
7:00pm 14ft 10s 31 36 mph 1013.2mb 37f 30f
6:00pm 14ft 10s 31 40 mph 1012.4mb 37f 30f
5:00pm 16.5ft 9s 31 38 mph 1011.8mb 37f 30f
4:00pm 14ft 8s 34 45 mph 1011.2mb 37f 30f
3:00pm 15ft 8s 36 43 mph 1010.3mb 37f 30f
2:00pm 13.5ft 9s 36 47 mph 1008.5mb 37f 30f
1:00pm 13ft 9s 34 40 mph 1007.5mb 37f 30f
12:00pm 12.5ft 10s 34 43 mph 1006.4mb 37f 31f
11:00am 12.5ft 10s 34 40 mph 1004.9mb 37f 31f
9:00am 13ft 9s 29 36 mph 1002.5mb 37f 34f
8:00am 13ft 10s 20 25 mph 1000.9mb 37f 35f
7:00am 13.5ft 10s 22 25 mph 999.1mb 37f 35f
6:00am 12ft 9s 25 29 mph 1000.3mb 37f 34f
5:00am 11.5ft 8s 27 31 mph 1002.7mb 37f 33f
4:00am 11.5ft 8s 25 29 mph 1005.4mb 37f 33f
3:00am 11.5ft 8s 27 34 mph 1008mb 37f 32f
2:00am 11.5ft 7s 27 36 mph 1011.2mb 37f 32f
1:00am 9.5ft 6s 27 34 mph 1013.4mb 37f 32f
12:00am 9ft 6s 31 38 mph 1014.1mb 37f 31f
Wed 02/25 11:00pm 8ft 5s 31 40 mph 1016mb 36f 30f
10:00pm 6.5ft 10s 31 36 mph 1017.8mb 36f 29f
9:00pm 6.5ft 10s 25 31 mph 1019.6mb 36f 27f
8:00pm 6ft 9s 20 25 mph 1022.6mb 36f 26f
7:00pm 6ft 9s 13 16 mph 1025.5mb 36f 26f
6:00pm 7ft 8s 11 13 mph 1026.8mb 36f 25f
5:00pm 6ft 10s 11 16 mph 1027.3mb 36f 24f
4:00pm 7ft 10s 11 13 mph 1027.4mb 36f 24f
3:00pm 7ft 10s 7 9 mph 1028.2mb 36f 24f
2:00pm 7ft 10s 7 9 mph 1028.9mb 36f 23f
1:00pm 8ft 10s  -  4 mph 1029.3mb 36f 24f
12:00pm  -   -  4
mph
- - -
11:00am 8.5ft 10s 7 9 mph 1027.6mb 36f 22f
9:00am  -   -  16
mph
1026.1mb - 21f
8:00am  -   -  16
mph
- - 28f
7:00am  -   -  18
mph
1024.1mb - 20f
Tue 02/24 6:00pm 17ft 10s 40
mph
1004.3mb 37f 16f
5:00pm  -   -  38
mph
- - -
4:00pm 15ft 8s 38 45 mph 1002.7mb 37f 18f
3:00pm 13ft 8s 36 47 mph 1002.5mb 37f 20f
2:00pm 11ft 8s 36 43 mph 1001.4mb 37f 22f